5K Run/Walk: Overall
Full Results

1st Place

Zak Montoya

17:24.4
2nd Place

Jacob DeTemple

17:25.9
3rd Place

Bret Campbell

20:00.2
Place Bib Name City Gender Division Time  
1. 1259 Zak Montoya Rupert, ID 1. Male 1. Men's 13-39 17:24.4
2. 1390 Jacob DeTemple Burley, ID 2. Male 2. Men's 13-39 17:25.9
3. 1418 Bret Campbell Burley, ID 3. Male 1. Men's 40-99 20:00.2
4. 1595 Brayden Hahn Afton, WY 4. Male 3. Men's 13-39 20:43.8
5. 1817 Tomas McCall Burley, ID 5. Male 4. Men's 13-39 20:57.9
6. 1733 Eli Davids Burley, ID 6. Male 5. Men's 13-39 21:15.6
7. 1850 Payton Bailey 7. Male 6. Men's 13-39 21:19.7
8. 1569 Saydi Anderson Rupert, ID 1. Female 1. Women's 13-39 21:29.8
9. 1545 Matthew Gil Paul, ID 8. Male 7. Men's 13-39 22:15.9
10. 1269 Matthew Mazur Declo, ID 9. Male 8. Men's 13-39 22:19.3
11. 1594 Ron Hahn Afton, WY 10. Male 2. Men's 40-99 22:29.3
12. 1272 John Mazur Declo, ID 11. Male 9. Men's 13-39 22:47.7
13. 1792 Julio Vazquez Burley, ID 12. Male 3. Men's 40-99 22:53.7
14. 1458 Greg Turner 13. Male 4. Men's 40-99 22:54.5
15. 1544 Francisco Gil Paul, ID 14. Male 5. Men's 40-99 22:57.8
16. 1596 Bryan Hahn Afton, WY 15. Male 10. Men's 13-39 23:00.4
17. 1517 Alexis studer Rupert, ID 2. Female 2. Women's 13-39 23:18.6
18. 1913 Jeff Miller 16. Male 6. Men's 40-99 23:46.1
19. 1971 Tyson Badger 17. Male 11. Men's 13-39 23:46.8
20. 1558 Shawn Robnett Kimberly, ID 18. Male 7. Men's 40-99 24:08.6
21. 1388 Matthew DeTemple Burley, ID 19. Male 8. Men's 40-99 24:20.3
22. 1402 Richy Salinas Cruz Heyburn, ID 20. Male 12. Men's 13-39 24:31.1
23. 1911 William Nielson 21. Male 1. Boy's 7-12 24:36.2
24. 1279 Margarita Ramirez Paul, ID 3. Female 1. Women's 40-99 24:36.8
25. 1636 Derek Dayton Dublin, CA 22. Male 13. Men's 13-39 24:38.4
26. 1655 Micah Wilwand 23. Male 14. Men's 13-39 24:38.5
27. 1406 Braylee Peterson Fruitland, ID 4. Female 1. Girl's 7-12 24:42.1
28. 1727 James Cooper Burely, ID 24. Male 15. Men's 13-39 24:43.5
29. 1966 Amanda Lara 5. Female 3. Women's 13-39 24:46.4
30. 1725 Mikea Barrie Declo, ID 6. Female 4. Women's 13-39 24:52.9
31. 1857 luke monroe 25. Male 2. Boy's 7-12 24:57.4
32. 1427 STEV GARCIA HEYBURN, ID 26. Male 9. Men's 40-99 25:02.8
33. 1936 Bryan Reiter 27. Male 10. Men's 40-99 25:19.9
34. 1755 Christopher Clare Seattle, WA 28. Male 11. Men's 40-99 25:25.5
35. 1816 Walter McCall Burley, ID 29. Male 12. Men's 40-99 25:25.6
36. 1858 matt monroe 30. Male 13. Men's 40-99 25:29.0
37. 1404 Sam Peterson Fruitland, ID 31. Male 16. Men's 13-39 25:35.6
38. 1747 Diana Kloepfer Heyburn, ID 7. Female 5. Women's 13-39 25:40.3
39. 1597 Brigham Hahn Afton, WY 32. Male 3. Boy's 7-12 25:45.7
40. 1849 Jordan Hansen 33. Male 17. Men's 13-39 25:47.2
41. 1848 Veronica Juarez Burley, ID 8. Female 6. Women's 13-39 25:58.0
42. 1644 Caleb Moller Spanish Fork, UT 34. Male 18. Men's 13-39 25:58.2
43. 1564 PAXTON TWISS PAUL, ID 35. Male 4. Boy's 7-12 25:59.7
44. 1257 Robert Taylor Burley, ID 36. Male 14. Men's 40-99 26:05.5
45. 1371 Jonathan Vernon Shelley, ID 37. Male 15. Men's 40-99 26:09.4
46. 1689 Maria Peralez Heyburn, ID 9. Female 7. Women's 13-39 26:19.0
47. 1829 River Thomas Boise, ID 38. Male 5. Boy's 7-12 26:19.3
48. 1835 Jed Thomas Heyburn, ID 39. Male 19. Men's 13-39 26:19.9
49. 1840 Daniel Lindauer Heyburn, ID 40. Male 20. Men's 13-39 26:20.9
50. 1271 Alex Mazur Declo, ID 41. Male 21. Men's 13-39 26:22.3
51. 1839 Jake Thomas Boise, ID 42. Male 22. Men's 13-39 26:22.4
52. 1568 Travis Anderson Rupert, ID 43. Male 16. Men's 40-99 26:22.5
53. 1748 Aaron Kloepfer Heyburn, ID 44. Male 23. Men's 13-39 26:35.2
54. 1820 Ginger Justesen Oakley, ID 10. Female 2. Women's 40-99 26:44.1
55. 1285 Sean Kelleher Boise, ID 45. Male 17. Men's 40-99 26:50.7
56. 1438 Darlene Schreiter Burley, ID 11. Female 8. Women's 13-39 26:52.9
57. 1258 Sydney Taylor Burley, ID 12. Female 9. Women's 13-39 26:53.5
58. 1635 Kyle Dayton Dublin, CA 46. Male 24. Men's 13-39 26:55.0
59. 1813 Casen Harman Heyburn, ID 47. Male 6. Boy's 7-12 26:57.7
60. 1823 Chelsea Holcomb Burley, ID 13. Female 10. Women's 13-39 27:15.3
61. 1690 Adrianna Peralez Heyburn, ID 14. Female 11. Women's 13-39 27:19.5
62. 1572 Robyn Jones Worland, WY 15. Female 3. Women's 40-99 27:30.1
63. 1736 Natalie Rojas Salt Lake City, UT 16. Female 12. Women's 13-39 27:36.0
64. 1654 Malorie Wilwand Walla Walla, WA 17. Female 13. Women's 13-39 27:44.7
65. 1410 Johnathon Ramirez Paul, ID 48. Male 25. Men's 13-39 27:45.7
66. 1887 Jack Harman Rupert, ID 49. Male 18. Men's 40-99 27:51.8
67. 1843 Russell Hollins Burley, ID 50. Male 26. Men's 13-39 27:56.6
68. 1570 Scott Coats RUPERT, ID 51. Male 19. Men's 40-99 28:12.0
69. 1577 Marshall Mcarthur Worland, WY 52. Male 27. Men's 13-39 28:13.2
70. 1724 Tad Barrie Declo, ID 53. Male 20. Men's 40-99 28:20.8
71. 1546 Michael Gil Paul, ID 54. Male 28. Men's 13-39 28:24.8
72. 1892 Seth Woodland 55. Male 29. Men's 13-39 28:32.6
73. 1722 Delfie Brower Heyburn, ID 18. Female 4. Women's 40-99 28:33.2
74. 1634 Dennis Dayton Dublin, CA 56. Male 21. Men's 40-99 28:35.5
75. 1398 Trenton Mckenzie Meridian, ID 57. Male 30. Men's 13-39 28:40.3
76. 1791 Gloria Vazquez Burley, ID 19. Female 5. Women's 40-99 28:44.7
77. 1432 Lacy Thomas Grantsville, UT 20. Female 14. Women's 13-39 28:53.7
78. 1703 Tyler Robb Fruitland, ID 58. Male 31. Men's 13-39 28:57.9
79. 1460 Andrew Wheeler Rupert, ID 59. Male 28:58.0
80. 1717 Tiffiany Robb Fruitland, ID 21. Female 15. Women's 13-39 28:59.2
81. 1632 Nathan Moller Spanish Fork, UT 60. Male 22. Men's 40-99 29:00.4
82. 1890 Kendalyn Anderson 22. Female 2. Girl's 7-12 29:01.7
83. 1575 Derringer Jones Worland, WY 61. Male 32. Men's 13-39 29:01.7
84. 1466 Jake Wheeler Boise, ID 62. Male 33. Men's 13-39 29:02.5
85. 1419 Connor Campbell Burley, ID 63. Male 34. Men's 13-39 29:02.5
86. 1838 Walker Thomas Boise, ID 23. Female 16. Women's 13-39 29:07.6
87. 1836 Liz Thomas Heyburn, ID 24. Female 17. Women's 13-39 29:09.5
88. 1415 Emma Perotto Rupert, ID 25. Female 3. Girl's 7-12 29:12.0
89. 1357 Gregory Holm HEBER CITY, UT 64. Male 35. Men's 13-39 29:20.2
90. 1781 Miranda Gibson Heyburn, ID 26. Female 6. Women's 40-99 29:25.8
91. 1782 Jeff Gibson Heyburn, ID 65. Male 23. Men's 40-99 29:25.8
92. 1574 Denali Jones Worland, WY 27. Female 18. Women's 13-39 29:30.9
93. 1559 Rachel Robnett Kimberly, ID 28. Female 19. Women's 13-39 29:31.3
94. 1753 Tannah Sellers Eden, ID 29. Female 20. Women's 13-39 29:31.4
95. 1312 Elvis Adams Burley, ID 66. Male 36. Men's 13-39 29:35.7
96. 1573 Saige Jones Worland, WY 30. Female 21. Women's 13-39 29:39.2
97. 1292 Hilda Ruiz Paul, ID 31. Female 7. Women's 40-99 29:43.6
98. 1270 Nic Mazur Declo, ID 67. Male 37. Men's 13-39 29:53.1
99. 1576 Sakoya Mcarthur Worland, WY 32. Female 22. Women's 13-39 29:54.5
100. 1378 Carter Stapelman Rexburg, ID 68. Male 38. Men's 13-39 29:57.0
101. 1417 Jenni Campbell Burley, ID 33. Female 8. Women's 40-99 30:05.4
102. 1440 Leslie Crane Rupert, ID 34. Female 9. Women's 40-99 30:06.9
103. 1637 Jared Dayton Dublin, CA 69. Male 7. Boy's 7-12 30:09.2
104. 1393 Stan Baker Burley, ID 70. Male 24. Men's 40-99 30:15.2
105. 1769 Matthew Fassett Paul, ID 71. Male 39. Men's 13-39 30:17.9
106. 1691 Triniti Peralez Heyburn, ID 35. Female 23. Women's 13-39 30:26.2
107. 1723 Kema Barrie Declo, ID 36. Female 10. Women's 40-99 30:26.7
108. 1399 Ashley Mckenzie Meridian, ID 37. Female 24. Women's 13-39 30:33.4
109. 1267 Alejandro Vega Twin Falls, ID 72. Male 40. Men's 13-39 30:35.5
110. 1785 KORTNEY HUTCHISON Burley, ID 38. Female 25. Women's 13-39 30:35.8
111. 1386 Courtney Field Wendell, ID 39. Female 26. Women's 13-39 30:36.5
112. 1514 Lydia Jensen Meridian, ID 40. Female 4. Girl's 7-12 30:40.6
113. 1745 Kyle Gerratt Burley, ID 73. Male 41. Men's 13-39 30:54.4
114. 1552 Hallie Thompson Twin Falls, ID 41. Female 27. Women's 13-39 30:54.5
115. 1746 Logan Gerratt Burley, ID 74. Male 8. Boy's 7-12 30:54.8
116. 1563 TAZYN TWISS PAUL, ID 75. Male 42. Men's 13-39 30:55.2
117. 1721 Kobe Jones Burley, ID 76. Male 9. Boy's 7-12 31:02.2
118. 1888 Candice Harman Heyburn, ID 42. Female 28. Women's 13-39 31:06.4
119. 1380 Josh Stapelman Rexburg, ID 77. Male 43. Men's 13-39 31:08.8
120. 1720 Ainslie Jones Burley, ID 43. Female 29. Women's 13-39 31:32.2
121. 1551 Tanner Thompson Twin Falls, ID 44. Female 30. Women's 13-39 31:40.9
122. 1809 Jaden Jensen Burley, ID 78. Male 44. Men's 13-39 31:42.8
123. 1349 Melanie Ranadey Pasco, WA 45. Female 31. Women's 13-39 31:47.7
124. 1760 Clay Stapelman Paul, ID 79. Male 45. Men's 13-39 31:52.6
125. 1968 Lucas Cruz 80. Male 46. Men's 13-39 31:56.6
126. 1609 Connor Frei 81. Male 10. Boy's 7-12 31:57.2
127. 1341 Dayton Rea Edmond, OK 82. Male 47. Men's 13-39 32:00.2
128. 1608 Miguel Martinez 83. Male 48. Men's 13-39 32:01.8
129. 1602 Megan Van Every Heyburn, ID 46. Female 32. Women's 13-39 32:02.8
130. 1886 Cale Baker Heyburn, ID 84. Male 11. Boy's 7-12 32:05.3
131. 1481 Treena Geary Burley, ID 47. Female 11. Women's 40-99 32:08.4
132. 1527 Justin Clark Rupert, ID 85. Male 25. Men's 40-99 32:17.6
133. 1737 Brigam Rojas Salt Lake City, UT 86. Male 49. Men's 13-39 32:32.8
134. 1459 Biffy Turner 48. Female 12. Women's 40-99 32:34.4
135. 1757 Nicole zalewski burley, ID 49. Female 33. Women's 13-39 32:39.7
136. 1728 Allison Cooper Burley, ID 50. Female 34. Women's 13-39 32:43.4
137. 1846 Leo Fierro Burley, ID 87. Male 50. Men's 13-39 32:44.0
138. 1283 Lisa Gates Boise, ID 51. Female 35. Women's 13-39 32:47.8
139. 1758 Travis Stapelman Paul, ID 88. Male 26. Men's 40-99 32:47.9
140. 1284 Andrea Kelleher Boise, ID 52. Female 13. Women's 40-99 32:48.3
141. 1770 Marissa Bowen Twin Falls, ID 53. Female 36. Women's 13-39 32:52.6
142. 1550 Scott Thompson Twin Falls, ID 89. Male 27. Men's 40-99 33:22.5
143. 1549 Tedi Thompson Twin Falls, ID 54. Female 14. Women's 40-99 33:22.8
144. 1908 Grady Nielson 90. Male 12. Boy's 7-12 33:27.4
145. 1729 Adam Hepworth Burley, ID 91. Male 51. Men's 13-39 33:41.1
146. 1394 Tristan Reep Pocatello, ID 55. Female 37. Women's 13-39 33:54.4
147. 1768 Whitt Davis Declo, ID 92. Male 52. Men's 13-39 33:55.4
148. 1366 Chelsi Davis Declo, ID 56. Female 38. Women's 13-39 34:01.0
149. 1844 Lacey Rich Rupert, ID 57. Female 39. Women's 13-39 34:01.1
150. 1355 Bracken Holm Heber, UT 93. Male 1. Boy's 1-6 34:05.0
151. 1762 Kyle Stapelman Paul, ID 94. Male 13. Boy's 7-12 34:05.1
152. 1557 Trevor Phillips Rupert, UT 95. Male 53. Men's 13-39 34:06.3
153. 1896 Boady Baker Heyburn, ID 96. Male 14. Boy's 7-12 34:06.4
154. 1780 coulson Rich Orem, UT 97. Male 15. Boy's 7-12 34:07.4
155. 1416 Keagan Perotto Rupert, ID 98. Male 16. Boy's 7-12 34:08.1
156. 1253 Terri Matthews Burley, ID 58. Female 15. Women's 40-99 34:09.2
157. 1877 Teegan Schreiter Burley, ID 99. Male 17. Boy's 7-12 34:12.6
158. 1413 Josh Perotto Rupert, ID 100. Male 54. Men's 13-39 34:16.2
159. 1810 Jessica Juarez Paul, ID 59. Female 40. Women's 13-39 34:23.2
160. 1400 Esmeralda Cruz Heyburn, ID 60. Female 16. Women's 40-99 34:56.0
161. 1678 Pedro Martinez Rupert, ID 101. Male 28. Men's 40-99 35:05.9
162. 1482 Jed Geary Burley, ID 102. Male 29. Men's 40-99 35:07.3
163. 1553 Annie Christensen Meridian, ID 61. Female 41. Women's 13-39 35:08.8
164. 1685 Henriikka Valdez Sandy, UT 62. Female 42. Women's 13-39 35:10.0
165. 1358 Harper Stambaugh Collierville, TN 63. Female 1. Girl's 1-6 35:14.0
166. 1730 Natalie Hepworth Burley, ID 64. Female 43. Women's 13-39 35:16.2
167. 1360 Caroline Stambaugh Collierville, TN 65. Female 2. Girl's 1-6 35:16.6
168. 1731 Greg Hepworth Burley, ID 103. Male 30. Men's 40-99 35:18.3
169. 1421 Kennedi Campbell Burley, ID 66. Female 44. Women's 13-39 35:27.1
170. 1696 Wesley Meyers Heyburn, ID 104. Male 18. Boy's 7-12 35:29.6
171. 1821 Garrick Hall levan, UT 105. Male 31. Men's 40-99 35:48.8
172. 1761 Jake Stapelman Paul, ID 106. Male 19. Boy's 7-12 35:49.3
173. 1876 Griffen Baker Heyburn, ID 107. Male 20. Boy's 7-12 35:51.1
174. 1940 Erin Preston 67. Female 45. Women's 13-39 35:55.1
175. 1700 Teresa Tellez Rupert, ID 68. Female 17. Women's 40-99 35:55.7
176. 1571 Casie Taylor Declo, ID 69. Female 46. Women's 13-39 35:57.0
177. 1306 Adriana Ortega Burley, ID 70. Female 18. Women's 40-99 36:02.2
178. 1391 Emma DeTemple Burley, ID 71. Female 5. Girl's 7-12 36:08.8
179. 1330 Thomas Goodwin Burley, ID 108. Male 55. Men's 13-39 36:08.8
180. 1856 kate monroe 72. Female 47. Women's 13-39 36:09.2
181. 1343 Alina Rea Edmond, OK 73. Female 6. Girl's 7-12 36:10.0
182. 1401 Biyonka Salinas Cruz Heyburn, ID 74. Female 48. Women's 13-39 36:16.5
183. 1336 Sean Goodwin Burley, ID 109. Male 21. Boy's 7-12 36:21.5
184. 1342 Brooks Rea Edmond, OK 110. Male 22. Boy's 7-12 36:31.7
185. 1266 Emma McBride Twin Falls, ID 75. Female 49. Women's 13-39 36:43.2
186. 1604 Robert Zamora Twin Falls, ID 111. Male 56. Men's 13-39 36:43.3
187. 1425 Emily Alvarez Burley, ID 76. Female 50. Women's 13-39 36:44.8
188. 1331 Anna Goodwin Burley, ID 77. Female 51. Women's 13-39 36:52.3
189. 1286 Corey Gates Boise, ID 112. Male 57. Men's 13-39 37:00.8
190. 1554 Sydee Watterson BURLEY, ID 78. Female 52. Women's 13-39 37:06.9
191. 1379 James Stapelman Rexburg, ID 113. Male 58. Men's 13-39 37:09.5
192. 1704 Addison Robb Fruitland, ID 79. Female 7. Girl's 7-12 37:11.8
193. 1408 Amari Peterson Fruitland, ID 80. Female 3. Girl's 1-6 37:13.5
194. 1260 Samantha Montoya Rupert, ID 81. Female 53. Women's 13-39 37:16.2
195. 1437 Zak Allred Paul, ID 114. Male 59. Men's 13-39 37:16.6
196. 1707 Terry Garner Rupert, ID 115. Male 32. Men's 40-99 37:28.2
197. 1515 Beverly Pickup Twin Falls, ID 82. Female 54. Women's 13-39 37:30.4
198. 1891 Emily Woodland 83. Female 55. Women's 13-39 37:30.9
199. 1516 Chad Pickup Twin Falls, ID 116. Male 60. Men's 13-39 37:31.0
200. 1742 Tanya Savage Jerome, ID 84. Female 19. Women's 40-99 37:32.5
201. 1521 Jason Spencer Rupert, ID 117. Male 61. Men's 13-39 37:33.8
202. 1469 Tiffany Bliss Paul, ID 85. Female 20. Women's 40-99 37:34.3
203. 1471 Gary Bliss Paul, ID 118. Male 33. Men's 40-99 37:40.7
204. 1743 Kacey Gates Jerome, ID 119. Male 34. Men's 40-99 37:45.8
205. 1824 Ada Beall Hailey, ID 86. Female 21. Women's 40-99 37:49.7
206. 1614 Doug Turner Boise, ID 120. Male 35. Men's 40-99 37:53.8
207. 1795 Josh Castro Paul, ID 121. Male 36. Men's 40-99 37:58.5
208. 1485 Eliana Alonzo Rupert, ID 87. Female 56. Women's 13-39 38:17.9
209. 1487 Jose Alonzo Rupert, ID 122. Male 62. Men's 13-39 38:18.5
210. 1392 Christian Chesley Burley, ID 123. Male 63. Men's 13-39 38:24.4
211. 1436 Capri Pickup Burley, ID 88. Female 4. Girl's 1-6 38:26.7
212. 1434 Amanda Pickup Burley, ID 89. Female 57. Women's 13-39 38:27.4
213. 1740 Tanner Bartlome Burley, ID 124. Male 64. Men's 13-39 38:28.5
214. 1435 Justin Pickup Burley, ID 125. Male 65. Men's 13-39 38:29.0
215. 1431 Kelston Thomas Grantsville, UT 126. Male 23. Boy's 7-12 38:30.4
216. 1818 Jackie Silvaz Heyburn, ID 90. Female 58. Women's 13-39 38:41.4
217. 1262 Juan Silvaz Heyburn, ID 127. Male 37. Men's 40-99 38:41.9
218. 1855 abby monroe 91. Female 59. Women's 13-39 38:45.9
219. 1562 Mitch TWiss PAUL, ID 128. Male 38. Men's 40-99 38:49.6
220. 1808 Ryker Jensen Burley, ID 129. Male 66. Men's 13-39 38:50.0
221. 1975 Reanna Jensen 92. Female 60. Women's 13-39 38:56.2
222. 1504 Ely Grimm Soda Springs, ID 130. Male 24. Boy's 7-12 38:59.1
223. 1505 Boe Grimm Soda Springs, ID 131. Male 2. Boy's 1-6 38:59.8
224. 1502 Brian Grimm Soda Springs, ID 132. Male 67. Men's 13-39 39:00.2
225. 1974 Alycia Hall 93. Female 61. Women's 13-39 39:01.1
226. 1422 Austin Campbell Burley, ID 133. Male 68. Men's 13-39 39:05.7
227. 1340 Tosha Stapelman Edmond, OK 94. Female 22. Women's 40-99 39:09.5
228. 1778 heidi Rich Orem, UT 95. Female 62. Women's 13-39 39:10.2
229. 1806 Brook Jensen Burley, ID 96. Female 23. Women's 40-99 39:10.3
230. 1779 Nathan Rich Orem, UT 134. Male 69. Men's 13-39 39:12.2
231. 1629 Carmen Mariel Ortiz Rupert, ID 97. Female 63. Women's 13-39 39:27.2
232. 1530 Makenzie Hurst Paul, ID 98. Female 64. Women's 13-39 39:48.7
233. 1414 Lauren Perotto Rupert, ID 99. Female 65. Women's 13-39 39:51.1
234. 1593 ISABELLE JUAREZ RUPERT, ID 100. Female 66. Women's 13-39 39:53.5
235. 1969 Sarah Badger 101. Female 24. Women's 40-99 39:56.9
236. 1805 Madison Dalrymple Twin Falls, ID 102. Female 8. Girl's 7-12 40:12.8
237. 1726 Amy Davis Rupert, ID 103. Female 25. Women's 40-99 40:16.2
238. 1601 Nichole Hughes Twin Falls, ID 104. Female 67. Women's 13-39 40:20.3
239. 1532 Macie Hurst Paul, ID 105. Female 9. Girl's 7-12 40:36.0
240. 1478 Tonya Van Tassell Paul, ID 106. Female 26. Women's 40-99 40:36.9
241. 1853 Jill Duncan 107. Female 27. Women's 40-99 40:37.2
242. 1763 Dali Stapelman Paul, ID 108. Female 10. Girl's 7-12 40:37.3
243. 1852 Jessi Duncan 109. Female 68. Women's 13-39 40:38.3
244. 1970 Kiara Badger 110. Female 69. Women's 13-39 40:43.9
245. 1470 Kaden Bliss Paul, ID 135. Male 25. Boy's 7-12 40:47.3
246. 1754 Jennifer Coats RUPERT, ID 111. Female 70. Women's 13-39 40:52.8
247. 1837 Karen Thomas Heyburn, ID 112. Female 28. Women's 40-99 41:00.1
248. 1906 Anita Holloway 113. Female 29. Women's 40-99 41:00.2
249. 1280 Nicole Gil Paul, ID 114. Female 11. Girl's 7-12 41:23.9
250. 1297 marden plant kimberly, ID 136. Male 39. Men's 40-99 41:23.9
251. 1373 Bailey Crane Rexburg, ID 115. Female 71. Women's 13-39 41:24.2
252. 1423 Zach Smith Burley, ID 137. Male 70. Men's 13-39 41:25.7
253. 1535 Eric Webb American Falls, ID 138. Male 71. Men's 13-39 41:34.6
254. 1607 Vivian Martinez Rupert, ID 116. Female 72. Women's 13-39 41:37.1
255. 1273 Abby Mazur Declo, ID 117. Female 73. Women's 13-39 41:43.1
256. 1638 Kimberly Dayton Dublin, CA 118. Female 30. Women's 40-99 41:48.5
257. 1610 Tiana Frei 119. Female 12. Girl's 7-12 41:56.5
258. 1709 Hailey Vodros Paul, ID 120. Female 13. Girl's 7-12 41:57.5
259. 1645 Madi Moller Spanish Fork, UT 121. Female 14. Girl's 7-12 42:25.7
260. 1424 Dan Lloyd Paul, ID 139. Male 40. Men's 40-99 42:27.8
261. 1697 Jonathen Meyers Heyburn, ID 140. Male 26. Boy's 7-12 42:37.6
262. 1807 Dustin Jensen Burley, ID 141. Male 41. Men's 40-99 42:39.6
263. 1275 Naomi Mazur Declo, ID 122. Female 74. Women's 13-39 42:41.2
264. 1665 Piper Hemsley Rupert, ID 123. Female 15. Girl's 7-12 42:43.0
265. 1508 Blair Bangerter South Jordan, UT 142. Male 42. Men's 40-99 42:49.0
266. 1633 Becky Moller Spanish Fork, UT 124. Female 75. Women's 13-39 43:01.8
267. 1646 Chloe Moller Spanish Fork, UT 125. Female 16. Girl's 7-12 43:02.3
268. 1509 Chase Bangerter SOUTH JORDAN, UT 143. Male 72. Men's 13-39 43:08.9
269. 1346 Skyler Doman Burley, ID 144. Male 73. Men's 13-39 43:11.0
270. 1348 Kenzee Bushman Burley, ID 126. Female 17. Girl's 7-12 43:11.2
271. 1667 McKenzie Walker Hazelton, ID 127. Female 76. Women's 13-39 43:18.6
272. 1433 Ben Thomas Grantsville, UT 145. Male 74. Men's 13-39 43:18.7
273. 1430 Daxley Thomas Grantsville, UT 146. Male 43:25.6
274. 1441 Abigail Hayden Burley, ID 128. Female 77. Women's 13-39 43:26.2
275. 1493 KC Young Paul, ID 147. Male 75. Men's 13-39 43:27.2
276. 1265 Stirland Zollinger Logan, UT 148. Male 76. Men's 13-39 43:27.5
277. 1352 Brian Mills Jr. Roy, UT 149. Male 77. Men's 13-39 43:32.0
278. 1506 Mya Grimm Soda Springs, ID 129. Female 5. Girl's 1-6 43:38.5
279. 1503 Eva Grimm Soda Springs, ID 130. Female 18. Girl's 7-12 43:41.1
280. 1264 Kasey Zollinger Logan, UT 131. Female 78. Women's 13-39 43:41.2
281. 1699 Ana Tellez Burley, ID 132. Female 79. Women's 13-39 43:41.4
282. 1501 Lindsay Grimm Soda Springs, ID 133. Female 80. Women's 13-39 43:42.1
283. 1385 Tevan Sorensen American Falls, ID 150. Male 3. Boy's 1-6 43:53.9
284. 1384 Rebekah Sorensen American Falls, ID 134. Female 81. Women's 13-39 43